createdAt,value
2019-01-12T00:02:06.186Z,0.50
2019-01-12T00:04:53.663Z,0.67
2019-01-12T00:07:41.436Z,0.50
2019-01-12T00:10:29.244Z,0.80
2019-01-12T00:13:16.547Z,0.50
2019-01-12T00:16:04.469Z,0.50
2019-01-12T00:18:53.125Z,0.50
2019-01-12T00:21:41.061Z,0.80
2019-01-12T00:24:31.677Z,0.60
2019-01-12T00:27:18.443Z,0.50
2019-01-12T00:30:06.472Z,0.70
2019-01-12T00:32:53.717Z,0.80
2019-01-12T00:35:41.709Z,0.80
2019-01-12T00:38:29.689Z,0.60
2019-01-12T00:41:17.592Z,0.80
2019-01-12T00:44:04.561Z,0.60
2019-01-12T00:46:52.553Z,0.77
2019-01-12T00:49:40.459Z,0.67
2019-01-12T00:52:27.794Z,0.70
2019-01-12T00:55:16.519Z,0.57
2019-01-12T00:58:05.332Z,0.40
2019-01-12T01:00:53.186Z,0.60
2019-01-12T01:03:40.981Z,0.60
2019-01-12T01:06:28.944Z,0.83
2019-01-12T01:09:16.879Z,0.87
2019-01-12T01:12:04.082Z,0.60
2019-01-12T01:14:52.000Z,1.20
2019-01-12T01:17:39.186Z,0.60
2019-01-12T01:20:27.215Z,0.70
2019-01-12T01:23:14.724Z,0.60
2019-01-12T01:26:02.329Z,0.70
2019-01-12T01:28:50.176Z,0.80
2019-01-12T01:31:37.984Z,0.70
2019-01-12T01:34:25.637Z,0.90
2019-01-12T01:37:13.542Z,0.60
2019-01-12T01:40:01.229Z,0.80
2019-01-12T01:42:49.161Z,0.80
2019-01-12T01:45:36.636Z,0.70
2019-01-12T01:48:24.485Z,0.80
2019-01-12T01:51:12.259Z,0.70
2019-01-12T01:53:59.942Z,0.90
2019-01-12T01:56:47.918Z,0.80
2019-01-12T01:59:35.420Z,0.80
2019-01-12T02:02:22.837Z,1.03
2019-01-12T02:05:10.762Z,0.90
2019-01-12T02:07:58.233Z,0.67
2019-01-12T02:10:45.499Z,0.80
2019-01-12T02:13:33.401Z,0.60
2019-01-12T02:16:22.973Z,0.80
2019-01-12T02:19:10.900Z,0.63
2019-01-12T02:21:58.567Z,1.17
2019-01-12T02:24:47.632Z,0.90
2019-01-12T02:27:35.566Z,0.60
2019-01-12T02:30:24.425Z,0.60
2019-01-12T02:33:13.360Z,0.70
2019-01-12T02:36:01.804Z,0.63
2019-01-12T02:38:49.776Z,0.63
2019-01-12T02:41:37.450Z,1.30
2019-01-12T02:44:25.049Z,0.77
2019-01-12T02:47:13.871Z,0.50
2019-01-12T02:50:01.222Z,0.70
2019-01-12T02:52:48.488Z,0.70
2019-01-12T02:55:35.915Z,0.77
2019-01-12T02:58:24.065Z,0.70
2019-01-12T03:01:12.388Z,0.80
2019-01-12T03:04:00.307Z,0.77
2019-01-12T03:06:48.153Z,0.67
2019-01-12T03:09:36.229Z,1.00
2019-01-12T03:12:24.359Z,0.70
2019-01-12T03:15:13.374Z,0.60
2019-01-12T03:18:00.661Z,0.80
2019-01-12T03:20:48.306Z,0.87
2019-01-12T03:23:36.173Z,0.90
2019-01-12T03:26:23.980Z,0.70
2019-01-12T03:29:12.922Z,0.80
2019-01-12T03:32:00.891Z,0.80
2019-01-12T03:34:49.100Z,0.73
2019-01-12T03:37:36.841Z,0.80
2019-01-12T03:40:24.629Z,1.00
2019-01-12T03:43:12.052Z,0.67
2019-01-12T03:46:00.865Z,0.60
2019-01-12T03:48:48.712Z,0.67
2019-01-12T03:51:36.118Z,0.90
2019-01-12T03:54:23.868Z,0.87
2019-01-12T03:57:11.450Z,0.60
2019-01-12T03:59:58.883Z,0.80
2019-01-12T04:02:46.872Z,0.80
2019-01-12T04:05:35.856Z,0.90
2019-01-12T04:08:24.603Z,0.80
2019-01-12T04:11:12.335Z,0.60
2019-01-12T04:14:00.009Z,0.63
2019-01-12T04:16:47.691Z,0.60
2019-01-12T04:19:35.720Z,0.60
2019-01-12T04:22:23.425Z,0.80
2019-01-12T04:25:11.118Z,1.03
2019-01-12T04:27:58.841Z,1.10
2019-01-12T04:30:46.683Z,0.77
2019-01-12T04:33:34.522Z,0.80
2019-01-12T04:36:22.093Z,0.77
2019-01-12T04:39:10.096Z,0.80
2019-01-12T04:41:57.676Z,0.60
2019-01-12T04:44:45.470Z,0.83
2019-01-12T04:47:32.892Z,0.70
2019-01-12T04:50:20.043Z,0.57
2019-01-12T04:53:07.481Z,0.60
2019-01-12T04:55:55.362Z,0.73
2019-01-12T04:58:43.145Z,0.87
2019-01-12T05:01:30.864Z,0.50
2019-01-12T05:04:19.579Z,0.80
2019-01-12T05:07:07.317Z,0.40
2019-01-12T05:09:55.080Z,0.80
2019-01-12T05:12:42.809Z,0.90
2019-01-12T05:15:31.562Z,0.80
2019-01-12T05:18:20.407Z,1.10
2019-01-12T05:21:08.346Z,0.60
2019-01-12T05:23:56.056Z,0.70
2019-01-12T05:26:43.942Z,0.80
2019-01-12T05:29:31.867Z,0.70
2019-01-12T05:32:19.222Z,0.90
2019-01-12T05:35:08.259Z,0.67
2019-01-12T05:37:56.012Z,0.70
2019-01-12T05:40:43.471Z,0.90
2019-01-12T05:43:30.805Z,0.90
2019-01-12T05:46:18.400Z,0.80
2019-01-12T05:49:05.878Z,0.60
2019-01-12T05:51:53.674Z,0.80
2019-01-12T05:54:41.707Z,0.90
2019-01-12T05:57:29.597Z,0.87
2019-01-12T06:00:18.180Z,0.77
2019-01-12T06:03:05.521Z,1.00
2019-01-12T06:05:53.171Z,0.70
2019-01-12T06:08:40.777Z,1.00
2019-01-12T06:11:28.307Z,0.70
2019-01-12T06:14:15.793Z,0.73
2019-01-12T06:17:05.625Z,0.63
2019-01-12T06:19:53.045Z,0.80
2019-01-12T06:22:40.521Z,0.60
2019-01-12T06:25:27.804Z,0.53
2019-01-12T06:28:15.748Z,0.70
2019-01-12T06:31:03.120Z,0.73
2019-01-12T06:33:51.141Z,0.70
2019-01-12T06:36:39.017Z,0.73
2019-01-12T06:39:27.741Z,0.70
2019-01-12T06:42:14.862Z,0.60
2019-01-12T06:45:02.334Z,1.10
2019-01-12T06:47:49.840Z,0.80
2019-01-12T06:50:37.763Z,0.60
2019-01-12T06:53:28.414Z,1.00
2019-01-12T06:56:16.052Z,0.67
2019-01-12T06:59:05.090Z,0.70
2019-01-12T07:01:52.043Z,4.43
2019-01-12T07:04:39.693Z,0.70
2019-01-12T07:07:27.387Z,0.80
2019-01-12T07:10:15.100Z,0.80
2019-01-12T07:13:02.415Z,1.03
2019-01-12T07:15:51.307Z,0.80
2019-01-12T07:18:39.170Z,0.67
2019-01-12T07:21:27.018Z,1.00
2019-01-12T07:24:14.898Z,0.70
2019-01-12T07:27:02.806Z,0.87
2019-01-12T07:29:50.434Z,1.00
2019-01-12T07:32:41.654Z,0.77
2019-01-12T07:35:30.118Z,0.70
2019-01-12T07:38:19.553Z,0.80
2019-01-12T07:44:20.562Z,0.90
2019-01-12T07:47:19.367Z,0.93
2019-01-12T07:50:11.073Z,1.10
2019-01-12T07:53:00.240Z,1.10
2019-01-12T07:55:48.276Z,0.77
2019-01-12T07:58:46.830Z,0.90
2019-01-12T08:01:35.181Z,0.70
2019-01-12T08:04:22.653Z,1.20
2019-01-12T08:07:32.939Z,1.20
2019-01-12T08:10:24.852Z,0.83
2019-01-12T08:13:12.869Z,0.70
2019-01-12T08:16:01.536Z,0.90
2019-01-12T08:18:49.868Z,0.70
2019-01-12T08:21:37.234Z,0.60
2019-01-12T08:24:24.829Z,0.83
2019-01-12T08:27:12.452Z,0.80
2019-01-12T08:30:05.377Z,0.70
2019-01-12T08:32:59.107Z,0.43
2019-01-12T08:35:48.102Z,0.90
2019-01-12T08:38:39.603Z,0.83
2019-01-12T08:42:13.343Z,0.80
2019-01-12T08:45:01.923Z,0.60
2019-01-12T08:47:50.139Z,0.50
2019-01-12T08:50:40.839Z,0.80
2019-01-12T08:53:30.205Z,0.60
2019-01-12T08:56:21.477Z,0.77
2019-01-12T08:59:11.497Z,0.90
2019-01-12T09:01:59.372Z,0.83
2019-01-12T09:04:47.861Z,0.87
2019-01-12T09:07:36.888Z,0.70
2019-01-12T09:10:25.900Z,0.70
2019-01-12T09:13:50.194Z,2.87
2019-01-12T09:16:38.157Z,2.70
2019-01-12T09:19:25.464Z,1.30
2019-01-12T09:22:13.994Z,0.80
2019-01-12T09:25:04.879Z,0.70
2019-01-12T09:28:01.203Z,0.70
2019-01-12T09:30:51.695Z,0.80
2019-01-12T09:37:17.373Z,0.60
2019-01-12T09:40:05.631Z,0.70
2019-01-12T09:42:53.077Z,0.73
2019-01-12T09:45:40.775Z,0.67
2019-01-12T09:48:28.732Z,0.50
2019-01-12T09:51:17.167Z,0.50
2019-01-12T09:54:04.347Z,0.50
2019-01-12T09:56:52.378Z,0.50
2019-01-12T09:59:40.629Z,0.70
2019-01-12T10:02:29.606Z,0.70
2019-01-12T10:05:18.342Z,0.67
2019-01-12T10:08:07.279Z,0.67
2019-01-12T10:10:55.488Z,0.50
2019-01-12T10:13:43.514Z,0.80
2019-01-12T10:16:31.298Z,0.60
2019-01-12T10:19:18.700Z,0.67
2019-01-12T10:22:06.090Z,0.60
2019-01-12T10:24:54.283Z,0.47
2019-01-12T10:27:41.846Z,0.43
2019-01-12T10:30:29.610Z,0.30
2019-01-12T10:33:17.132Z,0.40
2019-01-12T10:36:05.591Z,0.70
2019-01-12T10:38:53.366Z,0.77
2019-01-12T10:41:40.776Z,0.70
2019-01-12T10:44:29.377Z,8.83
2019-01-12T10:47:16.713Z,2.40
2019-01-12T10:50:05.471Z,1.60
2019-01-12T10:52:55.471Z,1.00
2019-01-12T10:55:42.572Z,1.10
2019-01-12T10:58:30.438Z,1.03
2019-01-12T11:01:18.198Z,1.00
2019-01-12T11:04:05.938Z,1.00
2019-01-12T11:06:53.943Z,1.20
2019-01-12T11:09:41.636Z,0.83
2019-01-12T11:12:29.045Z,0.90
2019-01-12T11:15:18.063Z,1.00
2019-01-12T11:18:05.861Z,0.70
2019-01-12T11:20:53.422Z,0.77
2019-01-12T11:23:44.808Z,0.90
2019-01-12T11:26:32.486Z,0.70
2019-01-12T11:29:19.818Z,0.70
2019-01-12T11:32:07.604Z,0.60
2019-01-12T11:34:55.001Z,0.67
2019-01-12T11:37:42.511Z,0.70
2019-01-12T11:40:30.335Z,0.60
2019-01-12T11:43:19.797Z,0.67
2019-01-12T11:46:07.642Z,0.87
2019-01-12T11:48:55.412Z,1.10
2019-01-12T11:51:42.985Z,0.97
2019-01-12T11:54:30.767Z,1.00
2019-01-12T11:57:19.316Z,0.73
2019-01-12T12:00:09.300Z,1.03
2019-01-12T12:02:56.669Z,0.60
2019-01-12T12:05:44.293Z,0.60
2019-01-12T12:08:32.208Z,0.97
2019-01-12T12:11:20.135Z,0.80
2019-01-12T12:14:08.139Z,0.90
2019-01-12T12:16:55.938Z,0.80
2019-01-12T12:19:43.445Z,0.80
2019-01-12T12:22:31.971Z,1.00
2019-01-12T12:25:19.588Z,0.80
2019-01-12T12:28:07.473Z,0.77
2019-01-12T12:30:54.737Z,0.70
2019-01-12T12:33:42.366Z,0.60
2019-01-12T12:36:29.973Z,0.77
2019-01-12T12:39:17.472Z,0.70
2019-01-12T12:42:05.011Z,0.70
2019-01-12T12:45:00.243Z,0.90
2019-01-12T12:47:47.589Z,0.83
2019-01-12T12:50:35.880Z,0.70
2019-01-12T12:53:23.845Z,0.60
2019-01-12T12:56:11.297Z,0.80
2019-01-12T12:58:58.826Z,0.70
2019-01-12T13:01:46.526Z,0.80
2019-01-12T13:04:34.227Z,0.77
2019-01-12T13:07:23.210Z,0.93
2019-01-12T13:10:12.944Z,0.63
2019-01-12T13:13:01.317Z,0.97
2019-01-12T13:15:51.050Z,1.00
2019-01-12T13:18:38.829Z,1.30
2019-01-12T13:21:26.428Z,1.00
2019-01-12T13:24:14.447Z,1.00
2019-01-12T13:27:02.392Z,0.80
2019-01-12T13:29:49.589Z,0.80
2019-01-12T13:32:37.529Z,1.00
2019-01-12T13:35:25.046Z,1.10
2019-01-12T13:38:13.102Z,0.90
2019-01-12T13:41:00.978Z,1.00
2019-01-12T13:43:49.989Z,0.80
2019-01-12T13:46:37.415Z,0.90
2019-01-12T13:49:25.388Z,0.70
2019-01-12T13:52:12.540Z,0.80
2019-01-12T13:55:00.251Z,1.10
2019-01-12T13:57:48.288Z,1.03
2019-01-12T14:00:36.236Z,0.80
2019-01-12T14:03:24.719Z,1.10
2019-01-12T14:06:12.519Z,0.90
2019-01-12T14:09:01.432Z,0.80
2019-01-12T14:11:49.380Z,1.27
2019-01-12T14:14:37.522Z,0.80
2019-01-12T14:17:26.183Z,0.97
2019-01-12T14:20:19.032Z,1.20
2019-01-12T14:23:06.770Z,0.90
2019-01-12T14:25:54.178Z,1.00
2019-01-12T14:28:41.591Z,0.90
2019-01-12T14:31:28.850Z,0.87
2019-01-12T14:34:16.383Z,1.10
2019-01-12T14:37:04.013Z,0.90
2019-01-12T14:39:52.235Z,0.70
2019-01-12T14:42:40.359Z,1.10
2019-01-12T14:45:30.777Z,1.13
2019-01-12T14:48:18.318Z,1.33
2019-01-12T14:51:07.330Z,1.07
2019-01-12T14:53:55.677Z,1.00
2019-01-12T14:56:43.373Z,1.20
2019-01-12T14:59:31.399Z,1.17
2019-01-12T15:02:19.209Z,0.97
2019-01-12T15:05:07.732Z,0.90
2019-01-12T15:07:58.418Z,2.50
2019-01-12T15:10:46.064Z,1.10
2019-01-12T15:13:34.320Z,1.00
2019-01-12T15:16:25.521Z,1.10
2019-01-12T15:19:13.486Z,0.83
2019-01-12T15:22:00.791Z,1.40
2019-01-12T15:24:48.538Z,1.10
2019-01-12T15:27:36.622Z,1.20
2019-01-12T15:32:51.440Z,1.47
2019-01-12T15:35:45.984Z,1.20
2019-01-12T15:38:33.282Z,1.40
2019-01-12T15:48:46.300Z,1.20
2019-01-12T15:52:19.481Z,1.40
2019-01-12T15:55:06.982Z,1.33
2019-01-12T15:57:57.004Z,1.37
2019-01-12T16:00:44.904Z,1.30
2019-01-12T16:03:35.398Z,1.30
2019-01-12T16:06:24.572Z,1.47
2019-01-12T16:12:13.122Z,1.67
2019-01-12T16:15:01.185Z,1.03
2019-01-12T16:17:49.494Z,1.20
2019-01-12T16:20:38.225Z,1.10
2019-01-12T16:23:25.936Z,1.30
2019-01-12T16:29:37.149Z,1.40
2019-01-12T16:32:24.795Z,1.43
2019-01-12T16:35:12.538Z,1.50
2019-01-12T16:38:00.227Z,1.30
2019-01-12T16:40:47.525Z,1.47
2019-01-12T16:43:36.812Z,1.33
2019-01-12T16:46:24.871Z,1.40
2019-01-12T16:49:12.501Z,1.13
2019-01-12T16:52:00.360Z,0.90
2019-01-12T16:54:47.970Z,1.40
2019-01-12T16:57:37.030Z,1.40
2019-01-12T17:00:26.264Z,1.27
2019-01-12T17:03:14.092Z,1.63
2019-01-12T17:06:01.872Z,1.43
2019-01-12T17:08:49.627Z,1.10
2019-01-12T17:11:37.227Z,1.30
2019-01-12T17:14:24.726Z,1.40
2019-01-12T17:17:12.154Z,1.17
2019-01-12T17:19:59.557Z,1.63
2019-01-12T17:22:47.422Z,1.50
2019-01-12T17:25:35.352Z,1.30
2019-01-12T17:28:24.697Z,1.40
2019-01-12T17:31:14.406Z,1.47
2019-01-12T17:34:02.433Z,1.30
2019-01-12T17:36:49.967Z,1.30
2019-01-12T17:39:37.142Z,1.27
2019-01-12T17:42:27.946Z,1.40
2019-01-12T17:45:16.775Z,1.60
2019-01-12T17:48:04.007Z,1.67
2019-01-12T17:50:51.443Z,1.17
2019-01-12T17:53:38.729Z,1.30
2019-01-12T17:56:26.285Z,1.50
2019-01-12T17:59:13.662Z,1.40
2019-01-12T18:02:01.586Z,1.40
2019-01-12T18:04:48.846Z,1.37
2019-01-12T18:07:35.950Z,1.50
2019-01-12T18:10:23.867Z,1.37
2019-01-12T18:13:11.461Z,2.10
2019-01-12T18:15:58.729Z,1.30
2019-01-12T18:18:46.347Z,1.30
2019-01-12T18:21:34.216Z,1.77
2019-01-12T18:24:21.751Z,1.77
2019-01-12T18:27:09.430Z,1.73
2019-01-12T18:29:57.158Z,1.60
2019-01-12T18:32:44.924Z,1.20
2019-01-12T18:35:32.725Z,1.50
2019-01-12T18:38:20.695Z,1.50
2019-01-12T18:41:07.809Z,1.60
2019-01-12T18:43:55.461Z,1.43
2019-01-12T18:46:43.984Z,1.90
2019-01-12T18:49:31.271Z,1.63
2019-01-12T18:52:19.158Z,1.80
2019-01-12T18:55:08.957Z,1.60
2019-01-12T18:57:56.268Z,1.60
2019-01-12T19:00:43.370Z,1.60
2019-01-12T19:03:30.866Z,1.50
2019-01-12T19:06:18.760Z,1.67
2019-01-12T19:09:07.834Z,1.90
2019-01-12T19:11:55.255Z,2.03
2019-01-12T19:14:42.858Z,1.83
2019-01-12T19:17:30.317Z,1.60
2019-01-12T19:20:18.120Z,1.70
2019-01-12T19:23:05.835Z,1.83
2019-01-12T19:25:53.668Z,1.77
2019-01-12T19:28:41.521Z,2.07
2019-01-12T19:31:29.124Z,2.03
2019-01-12T19:34:17.480Z,2.23
2019-01-12T19:37:04.937Z,2.37
2019-01-12T19:39:52.278Z,2.13
2019-01-12T19:42:39.905Z,2.00
2019-01-12T19:45:27.097Z,2.40
2019-01-12T19:48:14.627Z,2.00
2019-01-12T19:51:02.448Z,1.70
2019-01-12T19:53:50.209Z,1.97
2019-01-12T19:56:37.427Z,1.87
2019-01-12T19:59:25.348Z,1.53
2019-01-12T20:02:13.395Z,1.50
2019-01-12T20:05:00.776Z,1.60
2019-01-12T20:07:48.153Z,1.47
2019-01-12T20:10:35.623Z,1.20
2019-01-12T20:13:22.982Z,2.10
2019-01-12T20:16:10.814Z,2.20
2019-01-12T20:18:58.039Z,2.03
2019-01-12T20:21:45.687Z,2.13
2019-01-12T20:24:33.845Z,2.00
2019-01-12T20:27:22.737Z,2.30
2019-01-12T20:30:13.210Z,1.87
2019-01-12T20:33:13.383Z,2.20
2019-01-12T20:36:16.198Z,2.20
2019-01-12T20:39:22.767Z,5.70
2019-01-12T20:42:29.652Z,6.03
2019-01-12T20:45:26.695Z,5.17
2019-01-12T20:48:36.323Z,3.60
2019-01-12T20:51:46.197Z,3.70
2019-01-12T20:54:41.377Z,2.53
2019-01-12T20:57:46.697Z,2.40
2019-01-12T21:01:06.070Z,2.00
2019-01-12T21:04:17.873Z,1.47
2019-01-12T21:07:28.831Z,2.17
2019-01-12T21:10:38.298Z,1.83
2019-01-12T21:13:44.739Z,1.90
2019-01-12T21:16:37.893Z,3.30
2019-01-12T21:19:26.319Z,1.97
2019-01-12T21:22:14.162Z,2.00
2019-01-12T21:25:12.382Z,2.20
2019-01-12T21:27:59.826Z,4.40
2019-01-12T21:30:47.834Z,3.40
2019-01-12T21:33:35.600Z,1.70
2019-01-12T21:36:22.798Z,1.30
2019-01-12T21:39:11.030Z,2.00
2019-01-12T21:41:58.958Z,2.10
2019-01-12T21:44:46.903Z,2.20
2019-01-12T21:47:34.965Z,1.93
2019-01-12T21:50:22.980Z,2.27
2019-01-12T21:59:52.864Z,2.23
2019-01-12T22:02:40.889Z,2.10
2019-01-12T22:05:28.584Z,1.80
2019-01-12T22:08:16.598Z,2.00
2019-01-12T22:11:04.743Z,2.50
2019-01-12T22:13:58.708Z,2.53
2019-01-12T22:16:46.734Z,2.67
2019-01-12T22:19:34.272Z,2.20
2019-01-12T22:22:21.822Z,2.20
2019-01-12T22:25:09.544Z,2.87
2019-01-12T22:28:00.581Z,2.43
2019-01-12T22:30:48.502Z,2.50
2019-01-12T22:33:39.936Z,7.43
2019-01-12T22:36:28.105Z,3.47
2019-01-12T22:39:50.118Z,2.83
2019-01-12T22:42:46.556Z,3.03
2019-01-12T22:45:49.394Z,3.20
2019-01-12T22:48:38.018Z,2.80
2019-01-12T22:51:29.394Z,2.87
2019-01-12T22:54:17.430Z,2.83
2019-01-12T22:57:04.613Z,2.70
2019-01-12T22:59:56.973Z,2.83
2019-01-12T23:02:42.046Z,2.63
2019-01-12T23:05:29.988Z,2.00
2019-01-12T23:08:30.531Z,2.20
2019-01-12T23:11:20.618Z,2.10
2019-01-12T23:14:08.219Z,2.70
2019-01-12T23:16:55.954Z,2.63
2019-01-12T23:19:43.188Z,2.47
2019-01-12T23:22:31.096Z,2.30
2019-01-12T23:25:19.867Z,2.20
2019-01-12T23:28:07.355Z,2.20
2019-01-12T23:30:56.646Z,2.70
2019-01-12T23:33:44.885Z,2.63
2019-01-12T23:36:32.997Z,2.10
2019-01-12T23:39:20.359Z,2.27
2019-01-12T23:42:08.491Z,2.37
2019-01-12T23:44:56.422Z,1.93
2019-01-12T23:47:44.128Z,1.90
2019-01-12T23:50:31.388Z,1.97
2019-01-12T23:53:18.815Z,1.77
2019-01-12T23:56:06.840Z,2.20
2019-01-12T23:58:56.448Z,2.27
